createdAt,value
2018-04-14T00:01:56.205Z,82.58
2018-04-14T00:04:23.809Z,83.01
2018-04-14T00:06:51.429Z,83.00
2018-04-14T00:09:19.076Z,83.32
2018-04-14T00:11:46.678Z,83.74
2018-04-14T00:14:14.434Z,83.92
2018-04-14T00:16:42.053Z,83.92
2018-04-14T00:19:09.692Z,83.96
2018-04-14T00:21:37.378Z,84.10
2018-04-14T00:24:05.061Z,84.12
2018-04-14T00:26:32.667Z,84.40
2018-04-14T00:29:00.302Z,84.35
2018-04-14T00:31:27.928Z,84.38
2018-04-14T00:33:55.594Z,84.53
2018-04-14T00:36:23.613Z,84.61
2018-04-14T00:38:51.298Z,85.04
2018-04-14T00:41:19.225Z,84.81
2018-04-14T00:43:46.888Z,85.21
2018-04-14T00:46:14.598Z,85.05
2018-04-14T00:48:42.272Z,85.09
2018-04-14T00:51:10.026Z,84.90
2018-04-14T00:53:47.776Z,85.01
2018-04-14T00:56:15.499Z,84.96
2018-04-14T00:58:43.530Z,85.16
2018-04-14T01:01:11.174Z,85.13
2018-04-14T01:03:38.791Z,84.88
2018-04-14T01:06:07.541Z,84.87
2018-04-14T01:08:35.443Z,85.09
2018-04-14T01:11:03.092Z,85.00
2018-04-14T01:13:30.751Z,85.08
2018-04-14T01:15:58.470Z,85.22
2018-04-14T01:18:26.125Z,85.12
2018-04-14T01:20:54.005Z,84.76
2018-04-14T01:23:21.925Z,84.81
2018-04-14T01:25:49.603Z,84.53
2018-04-14T01:28:17.204Z,84.90
2018-04-14T01:30:44.814Z,84.79
2018-04-14T01:33:12.543Z,84.87
2018-04-14T01:35:40.321Z,84.79
2018-04-14T01:38:07.921Z,84.64
2018-04-14T01:40:35.509Z,85.02
2018-04-14T01:43:03.251Z,84.95
2018-04-14T01:45:30.881Z,84.91
2018-04-14T01:47:58.511Z,85.19
2018-04-14T01:50:26.265Z,85.40
2018-04-14T01:52:53.888Z,85.32
2018-04-14T01:55:21.511Z,85.65
2018-04-14T01:57:49.238Z,85.36
2018-04-14T02:00:17.123Z,85.45
2018-04-14T02:02:44.877Z,85.27
2018-04-14T02:05:12.763Z,85.12
2018-04-14T02:07:40.453Z,85.30
2018-04-14T02:10:08.295Z,85.16
2018-04-14T02:12:35.964Z,85.09
2018-04-14T02:15:03.547Z,85.09
2018-04-14T02:17:31.255Z,85.17
2018-04-14T02:19:59.135Z,85.13
2018-04-14T02:22:26.888Z,84.90
2018-04-14T02:24:54.554Z,85.11
2018-04-14T02:27:22.166Z,85.33
2018-04-14T02:29:49.819Z,85.10
2018-04-14T02:32:17.417Z,85.05
2018-04-14T02:34:44.998Z,85.04
2018-04-14T02:37:12.765Z,84.78
2018-04-14T02:39:40.345Z,84.93
2018-04-14T02:42:07.957Z,84.56
2018-04-14T02:44:35.594Z,84.43
2018-04-14T02:47:03.269Z,84.72
2018-04-14T02:49:30.957Z,84.98
2018-04-14T02:51:58.601Z,84.88
2018-04-14T02:54:26.248Z,84.81
2018-04-14T02:56:53.856Z,84.49
2018-04-14T02:59:21.838Z,84.54
2018-04-14T03:01:49.468Z,84.38
2018-04-14T03:04:17.311Z,84.41
2018-04-14T03:06:45.008Z,84.36
2018-04-14T03:09:12.612Z,84.20
2018-04-14T03:11:40.195Z,84.17
2018-04-14T03:14:07.886Z,83.95
2018-04-14T03:16:35.806Z,84.16
2018-04-14T03:19:03.545Z,84.21
2018-04-14T03:21:31.223Z,84.14
2018-04-14T03:23:58.891Z,83.96
2018-04-14T03:26:27.271Z,83.90
2018-04-14T03:28:54.864Z,83.87
2018-04-14T03:31:22.514Z,83.54
2018-04-14T03:33:50.147Z,83.54
2018-04-14T03:36:17.789Z,83.71
2018-04-14T03:38:45.676Z,83.70
2018-04-14T03:41:13.274Z,83.86
2018-04-14T03:43:40.882Z,83.90
2018-04-14T03:46:08.578Z,83.47
2018-04-14T03:48:36.515Z,83.43
2018-04-14T03:51:04.138Z,83.38
2018-04-14T03:53:31.721Z,83.50
2018-04-14T03:55:59.398Z,83.68
2018-04-14T03:58:27.368Z,83.65
2018-04-14T04:00:55.271Z,83.73
2018-04-14T04:03:22.909Z,83.81
2018-04-14T04:05:50.525Z,83.93
2018-04-14T04:08:18.287Z,84.13
2018-04-14T04:10:45.916Z,83.86
2018-04-14T04:13:13.546Z,83.67
2018-04-14T04:15:41.252Z,83.76
2018-04-14T04:18:08.889Z,83.76
2018-04-14T04:20:48.366Z,83.90
2018-04-14T04:23:27.762Z,83.67
2018-04-14T04:25:55.748Z,83.74
2018-04-14T04:28:25.144Z,83.43
2018-04-14T04:30:52.916Z,83.56
2018-04-14T04:33:20.505Z,83.91
2018-04-14T04:35:48.225Z,84.27
2018-04-14T04:38:15.961Z,84.65
2018-04-14T04:40:44.150Z,84.86
2018-04-14T04:43:11.909Z,84.94
2018-04-14T04:45:39.632Z,84.79
2018-04-14T04:48:07.319Z,85.12
2018-04-14T04:50:34.997Z,85.34
2018-04-14T04:53:02.876Z,85.60
2018-04-14T04:55:30.743Z,85.90
2018-04-14T04:57:58.464Z,86.06
2018-04-14T05:00:26.170Z,86.07
2018-04-14T05:02:53.805Z,86.41
2018-04-14T05:05:21.522Z,86.62
2018-04-14T05:07:49.196Z,86.73
2018-04-14T05:10:16.819Z,86.78
2018-04-14T05:12:44.429Z,87.13
2018-04-14T05:15:12.046Z,87.45
2018-04-14T05:17:40.029Z,87.49
2018-04-14T05:20:07.701Z,87.80
2018-04-14T05:22:35.310Z,87.93
2018-04-14T05:25:03.427Z,87.97
2018-04-14T05:27:31.053Z,87.99
2018-04-14T05:29:58.674Z,87.98
2018-04-14T05:32:26.420Z,88.04
2018-04-14T05:34:54.048Z,88.10
2018-04-14T05:37:21.659Z,88.33
2018-04-14T05:39:49.668Z,88.24
2018-04-14T05:42:17.313Z,88.69
2018-04-14T05:44:44.904Z,88.85
2018-04-14T05:47:12.883Z,89.01
2018-04-14T05:49:40.546Z,89.00
2018-04-14T05:52:08.222Z,88.84
2018-04-14T05:54:35.931Z,88.75
2018-04-14T05:57:03.515Z,88.83
2018-04-14T05:59:31.261Z,88.86
2018-04-14T06:01:59.182Z,88.89
2018-04-14T06:04:26.839Z,88.84
2018-04-14T06:06:54.508Z,88.59
2018-04-14T06:09:22.682Z,88.53
2018-04-14T06:11:50.363Z,88.54
2018-04-14T06:14:17.955Z,88.62
2018-04-14T06:16:45.853Z,88.46
2018-04-14T06:19:13.576Z,88.43
2018-04-14T06:21:41.686Z,88.51
2018-04-14T06:24:09.336Z,88.78
2018-04-14T06:26:36.997Z,88.94
2018-04-14T06:29:04.611Z,88.86
2018-04-14T06:31:32.204Z,88.77
2018-04-14T06:33:59.907Z,88.92
2018-04-14T06:36:27.566Z,88.98
2018-04-14T06:38:55.304Z,89.02
2018-04-14T06:41:23.836Z,88.62
2018-04-14T06:43:51.674Z,88.15
2018-04-14T06:46:19.927Z,87.83
2018-04-14T06:48:47.827Z,87.55
2018-04-14T06:51:15.674Z,87.72
2018-04-14T06:53:43.638Z,87.65
2018-04-14T06:56:11.228Z,87.52
2018-04-14T06:58:38.807Z,87.35
2018-04-14T07:01:06.442Z,87.20
2018-04-14T07:03:34.042Z,86.93
2018-04-14T07:06:01.665Z,86.82
2018-04-14T07:08:29.629Z,86.80
2018-04-14T07:10:57.238Z,86.75
2018-04-14T07:13:24.890Z,86.86
2018-04-14T07:15:52.924Z,87.00
2018-04-14T07:18:20.546Z,86.95
2018-04-14T07:20:48.464Z,87.04
2018-04-14T07:23:16.168Z,87.03
2018-04-14T07:25:43.746Z,87.10
2018-04-14T07:28:11.484Z,87.09
2018-04-14T07:30:39.154Z,87.46
2018-04-14T07:33:06.809Z,87.45
2018-04-14T07:35:34.428Z,87.41
2018-04-14T07:38:02.113Z,87.09
2018-04-14T07:40:30.190Z,86.36
2018-04-14T07:42:57.862Z,86.71
2018-04-14T07:45:25.489Z,86.82
2018-04-14T07:47:53.624Z,86.07
2018-04-14T07:50:21.202Z,86.24
2018-04-14T07:52:48.799Z,86.31
2018-04-14T07:55:16.821Z,85.72
2018-04-14T07:57:44.832Z,85.29
2018-04-14T08:00:12.425Z,85.32
2018-04-14T08:02:40.201Z,84.83
2018-04-14T08:05:08.014Z,84.27
2018-04-14T08:07:35.794Z,84.05
2018-04-14T08:10:03.464Z,83.97
2018-04-14T08:12:31.126Z,84.20
2018-04-14T08:14:59.193Z,83.48
2018-04-14T08:17:26.784Z,82.14
2018-04-14T08:19:54.686Z,81.81
2018-04-14T08:22:22.323Z,81.45
2018-04-14T08:24:49.917Z,81.38
2018-04-14T08:27:17.544Z,81.74
2018-04-14T08:29:45.431Z,81.88
2018-04-14T08:32:13.101Z,80.88
2018-04-14T08:34:41.095Z,80.56
2018-04-14T08:37:08.878Z,80.35
2018-04-14T08:39:36.486Z,80.20
2018-04-14T08:42:04.066Z,80.37
2018-04-14T08:44:31.717Z,80.20
2018-04-14T08:46:59.440Z,79.64
2018-04-14T08:49:27.151Z,79.75
2018-04-14T08:51:54.749Z,79.64
2018-04-14T08:54:22.437Z,79.02
2018-04-14T08:56:50.136Z,78.08
2018-04-14T08:59:17.721Z,78.10
2018-04-14T09:01:46.215Z,78.55
2018-04-14T09:04:13.994Z,77.51
2018-04-14T09:06:41.697Z,77.67
2018-04-14T09:09:09.388Z,77.95
2018-04-14T09:11:37.080Z,77.09
2018-04-14T09:14:04.664Z,76.46
2018-04-14T09:16:32.332Z,76.12
2018-04-14T09:18:59.961Z,75.62
2018-04-14T09:21:28.031Z,75.42
2018-04-14T09:23:55.672Z,76.28
2018-04-14T09:26:23.267Z,75.58
2018-04-14T09:28:51.302Z,75.87
2018-04-14T09:31:18.899Z,74.75
2018-04-14T09:33:46.553Z,75.11
2018-04-14T09:36:14.213Z,75.22
2018-04-14T09:38:41.970Z,73.71
2018-04-14T09:41:09.577Z,73.59
2018-04-14T09:43:37.760Z,73.69
2018-04-14T09:46:05.412Z,73.54
2018-04-14T09:48:33.116Z,74.14
2018-04-14T09:51:00.851Z,73.74
2018-04-14T09:53:28.459Z,72.79
2018-04-14T09:55:56.080Z,73.31
2018-04-14T09:58:23.674Z,74.01
2018-04-14T10:00:56.913Z,73.24
2018-04-14T10:03:24.650Z,73.74
2018-04-14T10:05:52.748Z,73.41
2018-04-14T10:08:20.376Z,73.22
2018-04-14T10:10:48.052Z,74.02
2018-04-14T10:13:15.778Z,73.23
2018-04-14T10:15:43.435Z,73.16
2018-04-14T10:18:11.017Z,73.19
2018-04-14T10:20:38.721Z,73.50
2018-04-14T10:23:06.379Z,73.60
2018-04-14T10:25:34.086Z,73.49
2018-04-14T10:28:02.157Z,73.28
2018-04-14T10:30:29.805Z,73.05
2018-04-14T10:32:57.529Z,71.97
2018-04-14T10:35:25.135Z,72.32
2018-04-14T10:37:52.880Z,71.62
2018-04-14T10:40:20.511Z,71.59
2018-04-14T10:42:48.464Z,71.24
2018-04-14T10:45:16.282Z,71.07
2018-04-14T10:47:43.930Z,71.52
2018-04-14T10:50:11.620Z,71.66
2018-04-14T10:52:39.224Z,70.92
2018-04-14T10:55:15.755Z,71.12
2018-04-14T10:57:43.335Z,70.94
2018-04-14T11:00:11.315Z,71.29
2018-04-14T11:02:38.991Z,71.64
2018-04-14T11:05:06.733Z,71.45
2018-04-14T11:07:34.495Z,70.80
2018-04-14T11:10:02.092Z,70.95
2018-04-14T11:12:29.755Z,72.04
2018-04-14T11:14:57.375Z,70.95
2018-04-14T11:17:24.960Z,70.34
2018-04-14T11:19:53.026Z,70.56
2018-04-14T11:22:20.618Z,70.85
2018-04-14T11:24:48.668Z,69.80
2018-04-14T11:27:16.262Z,69.67
2018-04-14T11:29:43.979Z,69.67
2018-04-14T11:32:11.591Z,68.55
2018-04-14T11:34:39.224Z,68.90
2018-04-14T11:37:06.859Z,68.91
2018-04-14T11:39:34.464Z,67.94
2018-04-14T11:42:02.041Z,68.61
2018-04-14T11:44:29.715Z,68.92
2018-04-14T11:46:57.437Z,68.78
2018-04-14T11:49:25.037Z,68.90
2018-04-14T11:51:52.996Z,67.13
2018-04-14T11:54:20.613Z,68.13
2018-04-14T11:56:48.269Z,68.28
2018-04-14T11:59:15.964Z,68.76
2018-04-14T12:01:43.988Z,68.12
2018-04-14T12:04:11.648Z,67.65
2018-04-14T12:06:39.396Z,67.96
2018-04-14T12:09:07.534Z,67.73
2018-04-14T12:11:35.456Z,68.07
2018-04-14T12:14:03.114Z,67.06
2018-04-14T12:16:30.781Z,66.70
2018-04-14T12:18:58.747Z,66.25
2018-04-14T12:21:26.343Z,65.77
2018-04-14T12:23:54.124Z,67.16
2018-04-14T12:26:21.720Z,66.84
2018-04-14T12:28:50.916Z,66.38
2018-04-14T12:31:18.502Z,66.67
2018-04-14T12:33:46.273Z,66.08
2018-04-14T12:36:13.908Z,65.96
2018-04-14T12:38:42.521Z,65.27
2018-04-14T12:41:10.349Z,65.89
2018-04-14T12:43:37.964Z,65.19
2018-04-14T12:46:05.643Z,65.67
2018-04-14T12:48:33.302Z,64.95
2018-04-14T12:51:00.940Z,65.44
2018-04-14T12:53:28.543Z,65.39
2018-04-14T12:55:56.250Z,65.58
2018-04-14T12:58:23.899Z,65.68
2018-04-14T13:00:51.580Z,66.04
2018-04-14T13:03:19.210Z,65.17
2018-04-14T13:05:46.840Z,65.65
2018-04-14T13:08:14.862Z,65.67
2018-04-14T13:10:42.531Z,66.17
2018-04-14T13:13:10.111Z,66.21
2018-04-14T13:15:37.735Z,66.53
2018-04-14T13:18:05.712Z,66.29
2018-04-14T13:20:33.400Z,66.69
2018-04-14T13:23:01.398Z,66.67
2018-04-14T13:25:29.001Z,66.04
2018-04-14T13:27:56.980Z,66.41
2018-04-14T13:30:24.607Z,66.54
2018-04-14T13:32:52.342Z,67.20
2018-04-14T13:35:20.000Z,67.00
2018-04-14T13:37:47.610Z,66.42
2018-04-14T13:40:15.234Z,66.56
2018-04-14T13:42:42.945Z,66.78
2018-04-14T13:45:10.553Z,66.72
2018-04-14T13:47:38.185Z,66.52
2018-04-14T13:50:05.957Z,67.35
2018-04-14T13:52:33.934Z,66.85
2018-04-14T13:55:01.706Z,66.83
2018-04-14T13:57:29.300Z,67.22
2018-04-14T13:59:56.882Z,67.22
2018-04-14T14:02:24.486Z,66.69
2018-04-14T14:04:52.444Z,67.06
2018-04-14T14:07:20.114Z,67.15
2018-04-14T14:09:47.775Z,66.85
2018-04-14T14:12:15.384Z,67.37
2018-04-14T14:14:43.459Z,67.42
2018-04-14T14:17:11.050Z,67.72
2018-04-14T14:19:38.700Z,66.74
2018-04-14T14:22:06.712Z,66.65
2018-04-14T14:24:34.372Z,66.97
2018-04-14T14:27:02.071Z,67.15
2018-04-14T14:29:29.747Z,67.45
2018-04-14T14:31:57.570Z,66.63
2018-04-14T14:34:25.245Z,66.81
2018-04-14T14:36:52.887Z,67.65
2018-04-14T14:39:20.469Z,67.12
2018-04-14T14:41:48.088Z,67.02
2018-04-14T14:44:15.763Z,67.43
2018-04-14T14:46:43.815Z,68.03
2018-04-14T14:49:11.397Z,68.16
2018-04-14T14:51:39.018Z,68.16
2018-04-14T14:54:07.006Z,68.25
2018-04-14T14:56:34.755Z,67.72
2018-04-14T14:59:02.427Z,68.02
2018-04-14T15:01:30.106Z,67.96
2018-04-14T15:03:57.714Z,67.66
2018-04-14T15:06:25.392Z,66.97
2018-04-14T15:08:53.135Z,66.79
2018-04-14T15:11:20.819Z,67.17
2018-04-14T15:13:48.398Z,67.57
2018-04-14T15:16:16.144Z,67.90
2018-04-14T15:18:43.741Z,68.11
2018-04-14T15:21:11.415Z,68.02
2018-04-14T15:23:39.542Z,67.89
2018-04-14T15:26:07.268Z,67.81
2018-04-14T15:28:34.899Z,67.68
2018-04-14T15:31:02.615Z,67.83
2018-04-14T15:33:30.268Z,67.73
2018-04-14T15:35:58.059Z,66.99
2018-04-14T15:38:25.701Z,67.15
2018-04-14T15:40:53.341Z,67.47
2018-04-14T15:43:20.930Z,67.18
2018-04-14T15:45:48.675Z,67.06
2018-04-14T15:48:16.359Z,67.20
2018-04-14T15:50:43.953Z,67.61
2018-04-14T15:53:11.627Z,67.01
2018-04-14T15:55:39.288Z,67.36
2018-04-14T15:58:06.986Z,67.46
2018-04-14T16:00:34.629Z,67.50
2018-04-14T16:03:02.643Z,67.63
2018-04-14T16:05:30.299Z,67.65
2018-04-14T16:07:57.886Z,67.55
2018-04-14T16:10:25.614Z,67.08
2018-04-14T16:12:53.275Z,67.02
2018-04-14T16:15:20.857Z,66.89
2018-04-14T16:17:48.479Z,66.80
2018-04-14T16:20:16.071Z,66.40
2018-04-14T16:22:43.867Z,66.01
2018-04-14T16:25:11.697Z,66.01
2018-04-14T16:27:39.293Z,65.95
2018-04-14T16:30:06.927Z,65.93
2018-04-14T16:32:34.897Z,65.80
2018-04-14T16:35:02.547Z,65.78
2018-04-14T16:37:30.468Z,65.27
2018-04-14T16:39:58.430Z,65.28
2018-04-14T16:42:26.169Z,65.27
2018-04-14T16:44:53.778Z,65.27
2018-04-14T16:47:22.260Z,65.80
2018-04-14T16:49:50.210Z,65.71
2018-04-14T16:52:18.166Z,65.97
2018-04-14T16:54:46.146Z,66.09
2018-04-14T16:57:13.739Z,65.96
2018-04-14T16:59:41.575Z,66.34
2018-04-14T17:02:09.277Z,66.33
2018-04-14T17:04:36.858Z,66.42
2018-04-14T17:07:04.647Z,66.42
2018-04-14T17:09:32.340Z,66.13
2018-04-14T17:12:00.297Z,66.07
2018-04-14T17:14:27.928Z,66.18
2018-04-14T17:16:55.585Z,65.94
2018-04-14T17:19:23.229Z,65.84
2018-04-14T17:21:51.063Z,65.68
2018-04-14T17:24:18.721Z,65.72
2018-04-14T17:26:46.424Z,65.92
2018-04-14T17:29:14.381Z,66.03
2018-04-14T17:31:42.078Z,66.26
2018-04-14T17:34:09.720Z,66.35
2018-04-14T17:36:37.389Z,66.62
2018-04-14T17:39:05.831Z,66.82
2018-04-14T17:41:33.428Z,66.93
2018-04-14T17:44:01.166Z,66.99
2018-04-14T17:46:28.785Z,66.91
2018-04-14T17:48:56.615Z,67.02
2018-04-14T17:51:24.221Z,67.09
2018-04-14T17:53:51.873Z,67.19
2018-04-14T17:56:19.955Z,67.27
2018-04-14T17:58:47.597Z,67.38
2018-04-14T18:01:15.613Z,67.55
2018-04-14T18:03:43.390Z,67.56
2018-04-14T18:06:10.995Z,67.48
2018-04-14T18:08:38.670Z,67.48
2018-04-14T18:11:06.344Z,67.49
2018-04-14T18:13:34.330Z,67.44
2018-04-14T18:16:02.483Z,67.38
2018-04-14T18:18:30.203Z,67.27
2018-04-14T18:20:57.892Z,67.16
2018-04-14T18:23:25.566Z,67.07
2018-04-14T18:25:53.544Z,66.90
2018-04-14T18:28:21.161Z,66.83
2018-04-14T18:30:48.840Z,66.75
2018-04-14T18:33:16.516Z,66.67
2018-04-14T18:35:44.403Z,66.56
2018-04-14T18:38:12.393Z,66.47
2018-04-14T18:40:40.077Z,66.32
2018-04-14T18:43:07.687Z,66.23
2018-04-14T18:45:35.272Z,66.29
2018-04-14T18:48:03.377Z,66.34
2018-04-14T18:50:30.990Z,66.30
2018-04-14T18:52:58.639Z,66.30
2018-04-14T18:55:26.247Z,66.34
2018-04-14T18:57:53.917Z,66.52
2018-04-14T19:00:21.509Z,67.05
2018-04-14T19:02:49.197Z,67.18
2018-04-14T19:05:16.821Z,67.24
2018-04-14T19:07:44.417Z,67.38
2018-04-14T19:10:12.038Z,67.77
2018-04-14T19:12:39.722Z,67.91
2018-04-14T19:15:08.431Z,67.97
2018-04-14T19:17:36.135Z,68.05
2018-04-14T19:20:03.772Z,68.15
2018-04-14T19:22:31.938Z,68.43
2018-04-14T19:24:59.603Z,69.41
2018-04-14T19:27:27.459Z,70.15
2018-04-14T19:29:55.131Z,70.47
2018-04-14T19:32:22.839Z,70.58
2018-04-14T19:34:50.591Z,70.34
2018-04-14T19:37:18.205Z,70.06
2018-04-14T19:39:46.085Z,69.84
2018-04-14T19:42:14.733Z,69.81
2018-04-14T19:44:42.394Z,69.97
2018-04-14T19:47:10.011Z,70.21
2018-04-14T19:49:37.959Z,70.59
2018-04-14T19:52:06.850Z,70.86
2018-04-14T19:54:34.717Z,70.92
2018-04-14T19:57:02.328Z,71.12
2018-04-14T19:59:30.068Z,71.35
2018-04-14T20:01:57.679Z,71.63
2018-04-14T20:04:25.372Z,71.84
2018-04-14T20:06:53.150Z,72.16
2018-04-14T20:09:20.805Z,72.48
2018-04-14T20:11:48.554Z,72.78
2018-04-14T20:14:16.281Z,73.03
2018-04-14T20:16:43.881Z,73.28
2018-04-14T20:19:11.480Z,73.54
2018-04-14T20:21:39.431Z,73.64
2018-04-14T20:24:07.103Z,73.95
2018-04-14T20:26:34.704Z,74.05
2018-04-14T20:29:02.302Z,74.25
2018-04-14T20:31:30.112Z,74.34
2018-04-14T20:33:57.847Z,74.43
2018-04-14T20:36:25.690Z,74.46
2018-04-14T20:38:53.279Z,74.47
2018-04-14T20:41:20.941Z,74.83
2018-04-14T20:43:48.574Z,75.04
2018-04-14T20:46:16.254Z,75.29
2018-04-14T20:48:44.337Z,75.51
2018-04-14T20:51:11.917Z,75.49
2018-04-14T20:53:39.845Z,75.52
2018-04-14T20:56:07.596Z,75.54
2018-04-14T20:58:35.274Z,75.52
2018-04-14T21:01:02.931Z,75.53
2018-04-14T21:03:30.562Z,75.61
2018-04-14T21:05:58.161Z,75.75
2018-04-14T21:08:26.348Z,75.89
2018-04-14T21:10:53.929Z,75.96
2018-04-14T21:13:21.523Z,76.10
2018-04-14T21:15:49.257Z,76.21
2018-04-14T21:18:17.296Z,76.42
2018-04-14T21:20:45.043Z,76.78
2018-04-14T21:23:12.912Z,77.05
2018-04-14T21:25:40.487Z,77.28
2018-04-14T21:28:08.111Z,77.38
2018-04-14T21:30:35.862Z,77.35
2018-04-14T21:33:03.473Z,77.32
2018-04-14T21:35:31.065Z,77.29
2018-04-14T21:37:58.767Z,77.31
2018-04-14T21:40:26.363Z,77.26
2018-04-14T21:42:54.017Z,77.26
2018-04-14T21:45:21.593Z,77.28
2018-04-14T21:47:49.258Z,77.30
2018-04-14T21:50:16.895Z,77.37
2018-04-14T21:52:44.497Z,77.65
2018-04-14T21:55:12.147Z,77.91
2018-04-14T21:57:40.009Z,78.22
2018-04-14T22:00:07.730Z,78.35
2018-04-14T22:02:35.318Z,78.44
2018-04-14T22:05:03.394Z,78.35
2018-04-14T22:07:31.057Z,78.28
2018-04-14T22:09:58.650Z,78.22
2018-04-14T22:12:26.690Z,78.33
2018-04-14T22:14:54.369Z,78.61
2018-04-14T22:17:21.967Z,78.76
2018-04-14T22:19:49.582Z,78.89
2018-04-14T22:22:17.235Z,79.02
2018-04-14T22:24:44.898Z,78.92
2018-04-14T22:27:12.493Z,78.86
2018-04-14T22:29:40.243Z,78.81
2018-04-14T22:32:08.072Z,78.89
2018-04-14T22:34:35.709Z,78.90
2018-04-14T22:37:03.665Z,79.06
2018-04-14T22:39:31.570Z,79.18
2018-04-14T22:41:59.254Z,79.43
2018-04-14T22:44:26.833Z,79.81
2018-04-14T22:46:54.458Z,80.16
2018-04-14T22:49:22.330Z,80.42
2018-04-14T22:51:49.957Z,80.66
2018-04-14T22:54:17.859Z,80.86
2018-04-14T22:56:45.441Z,81.29
2018-04-14T22:59:13.174Z,81.59
2018-04-14T23:01:40.988Z,81.85
2018-04-14T23:04:08.677Z,82.02
2018-04-14T23:06:36.579Z,82.18
2018-04-14T23:09:04.226Z,82.33
2018-04-14T23:11:31.904Z,82.33
2018-04-14T23:13:59.879Z,82.27
2018-04-14T23:16:28.554Z,82.29
2018-04-14T23:18:56.204Z,82.35
2018-04-14T23:21:23.873Z,82.39
2018-04-14T23:23:51.478Z,82.38
2018-04-14T23:26:19.200Z,82.26
2018-04-14T23:28:46.929Z,82.16
2018-04-14T23:31:14.779Z,82.06
2018-04-14T23:33:42.363Z,81.99
2018-04-14T23:36:10.383Z,81.95
2018-04-14T23:38:37.968Z,81.97
2018-04-14T23:41:05.895Z,82.04
2018-04-14T23:43:33.671Z,82.18
2018-04-14T23:46:01.310Z,82.51
2018-04-14T23:48:28.901Z,82.74
2018-04-14T23:50:56.920Z,82.85
2018-04-14T23:53:24.575Z,82.84
2018-04-14T23:55:52.192Z,82.88
2018-04-14T23:58:19.915Z,82.88
